Aurora, NE

2:21 PM CST on February 23, 2017 (GMT -0600)
Aurora Municipal | | Change Station
Active Advisory: Winter Weather Advisory

Elev 1804 ft 40.89 °N, 97.99 °W | Updated 6 minutes ago

Overcast
Overcast
35 °F
Feels Like 22 °F
N
26
Wind Variable Wind from NE
Gusts 32 mph

Today
High -- | Low -- °F
--% Chance of Precip.
Yesterday
High -- | Low -- °F
Precip. -- in
Pressure 29.58 in
Visibility 10.0 miles
Clouds Overcast 700 ft
Windchill 22 °F
Dew Point 32 °F
Humidity 91%
Rainfall 0.00 in
Snow Depth Not available.
7:14 AM 6:16 PM
Waning Crescent, 9% visible
METAR KAUH 232015Z AUTO 05023G28KT 10SM OVC007 02/00 A2958 RMK AO2 T00170003
Pressure 29.58 in
Visibility 10.0 miles
Clouds Overcast 700 ft
Windchill 22 °F
Dew Point 32 °F
Humidity 91%
Rainfall 0.00 in
Snow Depth Not available.
7:14 AM 6:16 PM
Waning Crescent, 9% visible
METAR KAUH 232015Z AUTO 05023G28KT 10SM OVC007 02/00 A2958 RMK AO2 T00170003

Get Your Daily Forecast Email!

Thanks for signing up!

Be on the lookout for a verification email in your inbox.

You'll start receiving the daily forecast at 8 AM.

×

10-Day Weather Forecast

Almanac

Astronomy

Feb. 23, 2017 Rise Set
Actual Time
Civil Twilight
Nautical Twilight
Astronomical Twilight
Moon
Length of Visible Light
Length of Day
Tomorrow will be .
, % of the Moon is Illuminated

Today's Extremes

State Highs State Lows

Community

WunderPhotos

Upload Photos

1,962,540 photos uploaded!

WunderBlog® & News

Nearby

Air Quality

  Air Quality AQ Index Pollutant
Not available.

Snow Depth

Station Depth Elevation

Earthquake Activity

City Distance Mag. Time & Date
Minimum magnitude displayed is 2.5.

Coastal Water Temperatures

Place Temperature

Stations

Nearby Weather Stations

Station Location Temp. Windchill Dew Point Humidity Wind Precip. Elev Updated Type
                   

Watches & Warnings

Winter Weather Advisory
Issued: 3:55 AM CST Feb. 23, 2017 – National Weather Service

... Winter Weather Advisory in effect from 6 PM this evening to
9 PM CST Friday...

The National Weather Service in Hastings has issued a Winter
Weather Advisory for snow and blowing snow... which is in effect
from 6 PM this evening to 9 PM CST Friday.

* Snow accumulation... 3 to 5 inches with locally higher amounts.

* Timing... rain will develop late this afternoon and change to
snow this evening. Periods of snow will continue through the
night and end Friday.

* Winds... north at 20 to 30 mph with gusts to around 40 mph.

* Impacts... travel will become dangerous as roads become snow-
covered and slick. Falling and blowing snow will reduce
visibilities. Air travel could also be affected at regional
airports.

Precautionary/preparedness actions...

A Winter Weather Advisory for snow and blowing snow means that
periods of snow and blowing snow will cause primarily travel
difficulties. Be prepared for snow covered roads and limited
visibilities... and use caution while driving.